createdAt,value
2023-01-19T00:17:17.967Z,397
2023-01-19T00:37:18.004Z,398
2023-01-19T00:57:18.002Z,395
2023-01-19T01:17:18.060Z,389
2023-01-19T01:37:18.047Z,394
2023-01-19T01:57:18.065Z,386
2023-01-19T02:37:18.131Z,392
2023-01-19T02:57:17.922Z,392
2023-01-19T03:17:18.110Z,384
2023-01-19T03:37:18.170Z,389
2023-01-19T03:57:18.156Z,389
2023-01-19T04:17:17.985Z,389
2023-01-19T04:37:18.184Z,380
2023-01-19T04:57:18.197Z,387
2023-01-19T05:17:18.257Z,391
2023-01-19T05:37:18.238Z,391
2023-01-19T05:57:18.270Z,392
2023-01-19T06:37:18.323Z,391
2023-01-19T06:57:18.329Z,390
2023-01-19T07:17:17.845Z,393
2023-01-19T07:37:17.888Z,391
2023-01-19T07:57:17.906Z,395
2023-01-19T08:17:25.428Z,391
2023-01-19T08:37:18.447Z,392
2023-01-19T08:57:18.441Z,386
2023-01-19T09:17:18.481Z,390
2023-01-19T09:37:18.489Z,387
2023-01-19T09:57:18.546Z,386
2023-01-19T10:17:18.545Z,387
2023-01-19T10:37:18.548Z,387
2023-01-19T10:57:18.123Z,385
2023-01-19T11:17:18.584Z,386
2023-01-19T11:37:18.602Z,383
2023-01-19T11:57:18.636Z,387
2023-01-19T12:17:18.627Z,385
2023-01-19T12:37:18.670Z,381
2023-01-19T12:57:18.659Z,385
2023-01-19T13:17:18.777Z,378
2023-01-19T13:37:18.501Z,383
2023-01-19T13:57:18.742Z,381
2023-01-19T14:17:18.739Z,379
2023-01-19T14:37:18.779Z,378
2023-01-19T15:17:18.787Z,377
2023-01-19T15:37:18.807Z,380
2023-01-19T15:57:18.398Z,379
2023-01-19T16:17:18.896Z,378
2023-01-19T16:37:18.878Z,372
2023-01-19T16:57:18.895Z,384
2023-01-19T17:17:18.927Z,379
2023-01-19T17:57:18.944Z,368
2023-01-19T18:17:18.957Z,374
2023-01-19T18:37:18.978Z,377
2023-01-19T18:57:19.021Z,370
2023-01-19T19:17:19.003Z,376
2023-01-19T19:37:19.016Z,374
2023-01-19T19:57:19.063Z,372
2023-01-19T20:17:19.060Z,366
2023-01-19T20:57:19.115Z,367
2023-01-19T21:17:19.149Z,373
2023-01-19T21:37:19.145Z,373
2023-01-19T21:57:19.169Z,365
2023-01-19T22:17:19.149Z,373
2023-01-19T22:37:18.673Z,368
2023-01-19T22:57:19.004Z,371
2023-01-19T23:17:19.214Z,367
2023-01-19T23:37:19.247Z,367
2023-01-19T23:57:19.238Z,370
